Flight Track Log - Related Links

Times and Time Zones

All times are in EDT time to prevent confusion due to time zone crossing. See the AAL832 flight status page for this flight to view local times or setup timezone preferences in your user account.


Time Position Orientation Groundspeed Altitude Reporting Facility
EDT Latitude Longitude Course Direction KTS MPH feet Rate Location/Type
Sun 12:50:13 PM 33.9333 -118.4500 59° Northeast 187 215 1,600  Level Southern California TRACON
Sun 12:50:28 PM 33.9294 -118.4719 258° West 201 231 1,900 1,870 Climbing Los Angeles Center
Sun 12:51:00 PM 34.0625 -118.1875 40° Northeast  Level FlightAware Approximate
Sun 12:51:30 PM 33.9033 -118.5514 248° West 241 277 4,000  Level Los Angeles Center
Sun 12:52:00 PM 34.1379 -118.0575 59° Northeast  Level FlightAware Approximate
Sun 12:52:32 PM 33.8656 -118.6178 236° Southwest 256 295 6,300  Level Los Angeles Center
Sun 12:53:00 PM 34.2061 -117.9212 59° Northeast  Level FlightAware Approximate
Sun 12:53:34 PM 33.8119 -118.5781 148° Southeast 271 312 8,400  Level Los Angeles Center
Sun 12:54:00 PM 34.2769 -117.7872 46° Northeast  Level FlightAware Approximate
Sun 12:54:36 PM 33.8608 -118.4969 54° Northeast 293 337 10,300  Level Los Angeles Center
Sun 12:55:00 PM 34.3595 -117.6643 59° Northeast  Level FlightAware Approximate
Sun 12:55:39 PM 33.9253 -118.4392 37° Northeast 321 369 11,500  Level Los Angeles Center
Sun 12:56:41 PM 33.9975 -118.3203 54° Northeast 362 417 14,100 2,226 Climbing Los Angeles Center
Sun 12:57:43 PM 34.0608 -118.2094 55° Northeast 392 451 16,100 2,081 Climbing Los Angeles Center
Sun 12:58:45 PM 34.1261 -118.0939 56° Northeast 410 472 18,400 2,032 Climbing Los Angeles Center
Sun 12:59:47 PM 34.1931 -117.9744 56° Northeast 426 490 20,300 1,887 Climbing Los Angeles Center
Sun 01:00:49 PM 34.2625 -117.8503 56° Northeast 442 509 22,300 1,839 Climbing Los Angeles Center
Sun 01:01:51 PM 34.3339 -117.7225 56° Northeast 455 524 24,100 1,645 Climbing Los Angeles Center
Sun 01:02:53 PM 34.4128 -117.5856 55° Northeast 468 539 25,700 1,500 Climbing Los Angeles Center
Sun 01:03:55 PM 34.5008 -117.4647 48° Northeast 481 554 27,200 1,452 Climbing Los Angeles Center
Sun 01:04:57 PM 34.6075 -117.3117 50° Northeast 496 571 28,700 1,296 Climbing Los Angeles Center
Sun 01:06:00 PM 34.6983 -117.1814 50° Northeast 508 585 29,900 1,296 Climbing Los Angeles Center
Sun 01:07:02 PM 34.7889 -117.0522 49° Northeast 507 583 31,400 1,355 Climbing Los Angeles Center
Sun 01:08:04 PM 34.8797 -116.9217 50° Northeast 509 586 32,700 1,210 Climbing Los Angeles Center
Sun 01:09:06 PM 34.9703 -116.7906 50° Northeast 509 586 33,900 1,258 Climbing Los Angeles Center
Sun 01:10:08 PM 35.0814 -116.6322 49° Northeast 513 590 35,300 1,161 Climbing Los Angeles Center
Sun 01:11:10 PM 35.1722 -116.5017 50° Northeast 511 588 36,300 823 Climbing Los Angeles Center
Sun 01:12:12 PM 35.2611 -116.3711 50° Northeast 502 578 37,000 339 Climbing Los Angeles Center
Sun 01:13:14 PM 35.3517 -116.2381 50° Northeast 508 585 37,000  Level Los Angeles Center
Sun 01:14:16 PM 35.4419 -116.1053 50° Northeast 508 585 37,000  Level Los Angeles Center
Sun 01:15:18 PM 35.5517 -115.9453 50° Northeast 510 587 37,000  Level Los Angeles Center
Sun 01:16:20 PM 35.6403 -115.8167 50° Northeast 511 588 37,000  Level Los Angeles Center
Sun 01:17:23 PM 35.7297 -115.6831 50° Northeast 508 585 37,000  Level Los Angeles Center
Sun 01:18:25 PM 35.8186 -115.5514 50° Northeast 502 578 37,000  Level Los Angeles Center
Sun 01:19:27 PM 35.9247 -115.3922 51° Northeast 503 579 37,000  Level Los Angeles Center
Sun 01:20:29 PM 36.0108 -115.2608 51° Northeast 498 573 37,000  Level Los Angeles Center
Sun 01:21:31 PM 36.0889 -115.1219 55° Northeast 502 578 37,000  Level Los Angeles Center
Sun 01:22:33 PM 36.1383 -114.9606 69° East 506 582 37,000  Level Los Angeles Center
Sun 01:23:35 PM 36.1869 -114.8003 69° East 503 579 37,000  Level Los Angeles Center
Sun 01:24:37 PM 36.2442 -114.6044 70° East 506 582 37,000  Level Los Angeles Center
Sun 01:25:39 PM 36.2908 -114.4419 70° East 504 580 37,000  Level Los Angeles Center
Sun 01:26:41 PM 36.3417 -114.2778 69° East 508 585 37,000  Level Los Angeles Center
Sun 01:27:43 PM 36.3892 -114.1131 70° East 508 585 37,000  Level Los Angeles Center
Sun 01:28:45 PM 36.4369 -113.9475 70° East 509 586 37,000  Level Los Angeles Center
Sun 01:29:48 PM 36.4867 -113.7814 70° East 513 590 37,000  Level Los Angeles Center
Sun 01:31:02 PM 36.5528 -113.5447 71° East 513 590 37,000  Level Los Angeles Center
Sun 01:32:04 PM 36.6008 -113.3786 70° East 513 590 37,000  Level Los Angeles Center
Sun 01:33:06 PM 36.6467 -113.2108 71° East 515 593 37,000  Level Los Angeles Center
Sun 01:34:08 PM 36.6947 -113.0450 70° East 513 590 37,000  Level Los Angeles Center
Sun 01:35:10 PM 36.7406 -112.8767 71° East 515 593 37,000  Level Los Angeles Center
Sun 01:36:12 PM 36.7972 -112.6753 71° East 516 594 37,000  Level Los Angeles Center
Sun 01:37:15 PM 36.8425 -112.5089 71° East 512 589 37,000  Level Los Angeles Center
Sun 01:38:17 PM 36.8889 -112.3425 71° East 512 589 37,000  Level Los Angeles Center
Sun 01:39:19 PM 36.9350 -112.1733 71° East 516 594 37,000  Level Los Angeles Center
Sun 01:40:21 PM 36.9803 -112.0056 71° East 514 592 37,000  Level Los Angeles Center
Sun 01:41:23 PM 37.0353 -111.8025 71° East 516 594 37,000  Level Los Angeles Center
Sun 01:42:25 PM 37.0817 -111.6317 71° East 520 598 37,000  Level Los Angeles Center
Sun 01:43:27 PM 37.1264 -111.4614 72° East 519 597 37,000  Level Los Angeles Center
Sun 01:44:35 PM 37.1792 -111.2558 72° East 522 601 37,000  Level Denver Center
Sun 01:45:37 PM 37.2239 -111.0844 72° East 522 601 37,000  Level Denver Center
Sun 01:46:40 PM 37.2678 -110.9136 72° East 520 598 37,000  Level Denver Center
Sun 01:47:42 PM 37.3008 -110.7389 77° East 522 601 37,000  Level Denver Center
Sun 01:48:44 PM 37.3242 -110.5614 81° East 518 596 37,000  Level Denver Center
Sun 01:49:46 PM 37.3503 -110.3481 81° East 518 596 37,000  Level Denver Center
Sun 01:50:48 PM 37.3717 -110.1714 81° East 517 595 37,000  Level Denver Center
Sun 01:51:50 PM 37.3917 -110.0003 82° East 516 594 37,000  Level Denver Center
Sun 01:52:52 PM 37.3978 -109.7961 88° East 520 598 37,000  Level Denver Center
Sun 01:53:54 PM 37.4033 -109.6242 88° East 517 595 37,000  Level Denver Center
Sun 01:54:56 PM 37.4086 -109.4219 88° East 517 595 37,000  Level Denver Center
Sun 01:55:58 PM 37.4139 -109.2472 88° East 519 597 37,000  Level Denver Center
Sun 01:57:00 PM 37.4194 -109.0736 88° East 518 596 37,000  Level Denver Center
Sun 01:58:02 PM 37.4247 -108.8686 88° East 523 602 37,000  Level Denver Center
Sun 01:59:04 PM 37.4300 -108.6925 88° East 525 604 37,000  Level Denver Center
Sun 02:00:06 PM 37.4353 -108.4878 88° East 524 603 37,000  Level Denver Center
Sun 02:01:08 PM 37.4408 -108.3139 88° East 522 601 37,000  Level Denver Center
Sun 02:02:10 PM 37.4456 -108.1114 88° East 518 596 37,000  Level Denver Center
Sun 02:03:13 PM 37.4494 -107.9386 88° East 517 595 37,000  Level Denver Center
Sun 02:04:15 PM 37.4544 -107.7394 88° East 512 589 37,000  Level Denver Center
Sun 02:05:17 PM 37.4592 -107.5681 88° East 511 588 37,000  Level Denver Center
Sun 02:06:19 PM 37.4650 -107.3672 88° East 513 590 37,000  Level Denver Center
Sun 02:07:21 PM 37.4700 -107.1956 88° East 514 592 37,000  Level Denver Center
Sun 02:08:23 PM 37.5017 -106.9967 79° East 523 602 37,000  Level Denver Center
Sun 02:09:25 PM 37.5444 -106.8331 72° East 515 593 37,000  Level Denver Center
Sun 02:10:27 PM 37.5850 -106.6667 73° East 519 597 37,000  Level Denver Center
Sun 02:11:29 PM 37.6336 -106.4725 72° East 520 598 37,000  Level Denver Center
Sun 02:12:31 PM 37.6756 -106.3042 72° East 525 604 37,000  Level Denver Center
Sun 02:13:33 PM 37.7222 -106.1125 73° East 526 605 37,000  Level Denver Center
Sun 02:14:35 PM 37.7692 -105.9158 73° East 524 603 37,000  Level Denver Center
Sun 02:15:37 PM 37.8094 -105.7472 73° East 523 602 37,000  Level Denver Center
Sun 02:16:39 PM 37.8503 -105.5783 73° East 524 603 37,000  Level Denver Center
Sun 02:17:42 PM 37.8969 -105.3819 73° East 521 600 37,000  Level Denver Center
Sun 02:18:44 PM 37.9364 -105.2125 74° East 523 602 37,000  Level Denver Center
Sun 02:19:46 PM 37.9836 -105.0128 73° East 528 608 37,000  Level Denver Center
Sun 02:20:48 PM 38.0239 -104.8425 73° East 526 605 37,000  Level Denver Center
Sun 02:21:50 PM 38.0697 -104.6422 74° East 526 605 37,000  Level Denver Center
Sun 02:22:52 PM 38.1086 -104.4697 74° East 528 608 37,000  Level Denver Center
Sun 02:23:54 PM 38.1547 -104.2692 74° East 527 606 37,000  Level Denver Center
Sun 02:24:56 PM 38.1931 -104.0939 74° East 532 612 37,000  Level Denver Center
Sun 02:25:58 PM 38.2319 -103.9208 74° East 531 611 37,000  Level Denver Center
Sun 02:27:00 PM 38.2775 -103.7189 74° East 529 609 37,000  Level Denver Center
Sun 02:28:02 PM 38.3144 -103.5467 75° East 526 605 37,000  Level Denver Center
Sun 02:29:04 PM 38.3539 -103.3678 74° East 519 597 37,000  Level Denver Center
Sun 02:30:06 PM 38.3958 -103.1686 75° East 519 597 37,000  Level Denver Center
Sun 02:31:08 PM 38.4331 -102.9989 74° East 519 597 37,000  Level Denver Center
Sun 02:32:10 PM 38.4742 -102.8006 75° East 519 597 37,000  Level Denver Center
Sun 02:33:12 PM 38.5100 -102.6306 75° East 518 596 37,000  Level Denver Center
Sun 02:34:15 PM 38.5525 -102.4314 75° East 521 600 37,000  Level Denver Center
Sun 02:35:17 PM 38.5878 -102.2606 75° East 520 598 37,000  Level Denver Center
Sun 02:36:19 PM 38.6278 -102.0603 76° East 520 598 37,000  Level Denver Center
Sun 02:37:21 PM 38.6625 -101.8872 76° East 524 603 37,000  Level Denver Center
Sun 02:38:23 PM 38.7036 -101.6858 75° East 523 602 37,000  Level Denver Center
Sun 02:39:25 PM 38.7383 -101.5139 75° East 522 601 37,000  Level Denver Center
Sun 02:40:27 PM 38.7714 -101.3397 76° East 523 602 37,000  Level Denver Center
Sun 02:41:29 PM 38.8119 -101.1383 75° East 523 602 37,000  Level Denver Center
Sun 02:42:31 PM 38.8456 -100.9644 76° East 523 602 37,000  Level Denver Center
Sun 02:43:33 PM 38.8853 -100.7603 76° East 527 606 37,000  Level Denver Center
Sun 02:44:35 PM 38.9178 -100.5867 76° East 523 602 37,000  Level Denver Center
Sun 02:45:37 PM 38.9556 -100.3842 76° East 522 601 37,000  Level Denver Center
Sun 02:46:39 PM 38.9881 -100.2064 77° East 521 600 37,000  Level Denver Center
Sun 02:47:41 PM 39.0256 -100.0067 76° East 517 595 37,000  Level Denver Center
Sun 02:48:43 PM 39.0564 -99.8386 77° East 517 595 37,000 432 Level Denver Center
Sun 02:49:46 PM 39.0936 -99.6364 77° East 519 597 37,900 769 Climbing Denver Center
Sun 02:50:01 PM 39.0992 -99.6083 76° East 517 595 38,000 677 Climbing Kansas City Center
Sun 02:50:48 PM 39.1250 -99.4656 77° East 514 592 38,600 496 Climbing Denver Center
Sun 02:52:02 PM 39.1650 -99.2333 77° East 518 596 39,000 170 Climbing Denver Center
Sun 02:53:09 PM 39.1964 -99.0650 76° East 518 596 39,000  Level Kansas City Center
Sun 02:54:10 PM 39.2314 -98.8608 77° East 509 586 39,000  Level Kansas City Center
Sun 02:55:11 PM 39.2600 -98.6892 78° East 511 588 39,000  Level Kansas City Center
Sun 02:56:15 PM 39.2933 -98.4942 77° East 514 592 39,000  Level Kansas City Center
Sun 02:57:14 PM 39.3244 -98.3161 77° East 511 588 39,000  Level Kansas City Center
Sun 02:58:18 PM 39.3583 -98.1164 78° East 511 588 39,000  Level Kansas City Center
Sun 02:59:21 PM 39.3856 -97.9439 78° East 513 590 39,000  Level Kansas City Center
Sun 03:00:23 PM 39.4197 -97.7397 78° East 516 594 39,000  Level Kansas City Center
Sun 03:01:24 PM 39.4483 -97.5606 78° East 511 588 39,000  Level Kansas City Center
Sun 03:02:25 PM 39.4744 -97.3986 78° East 506 582 39,000  Level Kansas City Center
Sun 03:03:29 PM 39.5069 -97.1997 78° East 505 581 39,000  Level Kansas City Center
Sun 03:04:29 PM 39.5350 -97.0164 79° East 508 585 39,000  Level Kansas City Center
Sun 03:05:33 PM 39.5647 -96.8256 79° East 510 587 39,000  Level Kansas City Center
Sun 03:06:33 PM 39.5908 -96.6536 79° East 509 586 39,000  Level Kansas City Center
Sun 03:07:37 PM 39.6219 -96.4503 79° East 514 592 39,000  Level Kansas City Center
Sun 03:08:37 PM 39.6478 -96.2758 79° East 514 592 39,000  Level Kansas City Center
Sun 03:09:38 PM 39.6781 -96.0714 79° East 514 592 39,000  Level Kansas City Center
Sun 03:10:42 PM 39.7042 -95.8947 79° East 518 596 39,000  Level Kansas City Center
Sun 03:11:44 PM 39.7342 -95.6889 79° East 519 597 39,000  Level Kansas City Center
Sun 03:12:44 PM 39.7583 -95.5125 80° East 515 593 39,000  Level Kansas City Center
Sun 03:13:48 PM 39.7836 -95.3350 79° East 518 596 39,000  Level Kansas City Center
Sun 03:14:49 PM 39.8128 -95.1289 79° East 516 594 39,000  Level Kansas City Center
Sun 03:15:53 PM 39.8369 -94.9514 80° East 519 597 39,000  Level Kansas City Center
Sun 03:16:53 PM 39.8656 -94.7422 80° East 523 602 39,000  Level Kansas City Center
Sun 03:17:55 PM 39.8894 -94.5633 80° East 523 602 39,000  Level Kansas City Center
Sun 03:18:58 PM 39.9128 -94.3842 80° East 524 603 39,000  Level Kansas City Center
Sun 03:20:00 PM 39.9403 -94.1756 80° East 524 603 39,000  Level Kansas City Center
Sun 03:21:00 PM 39.9647 -93.9783 81° East 529 609 39,000  Level Kansas City Center
Sun 03:22:04 PM 40.0019 -93.7994 75° East 521 600 39,000  Level Kansas City Center
Sun 03:23:05 PM 40.0458 -93.6217 72° East 519 597 39,000  Level Kansas City Center
Sun 03:24:06 PM 40.0881 -93.4431 73° East 521 600 39,000  Level Kansas City Center
Sun 03:25:10 PM 40.1403 -93.2278 72° East 520 598 39,000  Level Kansas City Center
Sun 03:26:11 PM 40.1825 -93.0486 73° East 521 600 39,000  Level Kansas City Center
Sun 03:27:13 PM 40.2244 -92.8683 73° East 523 602 39,000  Level Kansas City Center
Sun 03:28:14 PM 40.2719 -92.6647 73° East 524 603 39,000  Level Kansas City Center
Sun 03:29:18 PM 40.3119 -92.4897 73° East 524 603 39,000  Level Kansas City Center
Sun 03:30:19 PM 40.3547 -92.3011 73° East 534 615 39,000  Level Kansas City Center
Sun 03:31:20 PM 40.3944 -92.1225 74° East 523 602 39,000  Level Kansas City Center
Sun 03:31:39 PM 40.4106 -92.0500 74° East 521 600 39,000 -296 Level Chicago Center
Sun 03:32:41 PM 40.4514 -91.8703 73° East 521 600 38,600 -686 Descending Chicago Center
Sun 03:33:24 PM 40.4819 -91.7267 74° East 517 595 37,800 -1,846 Descending Kansas City Center
Sun 03:34:25 PM 40.5208 -91.5478 74° East 514 592 35,400 -2,286 Descending Kansas City Center
Sun 03:35:30 PM 40.5625 -91.3683 73° East 517 595 33,000 -1,152 Descending Kansas City Center
Sun 03:36:30 PM 40.6289 -91.1833 65° Northeast 512 589 33,000  Level Kansas City Center
Sun 03:36:49 PM 40.6408 -91.1503 65° Northeast 512 589 33,000 -296 Level Chicago Center
Sun 03:37:51 PM 40.6994 -90.9767 66° East 517 595 32,600 -1,548 Descending Chicago Center
Sun 03:38:53 PM 40.7703 -90.7703 66° East 514 592 29,800 -1,742 Descending Chicago Center
Sun 03:39:55 PM 40.8272 -90.5978 66° East 510 587 29,000 -816 Descending Chicago Center
Sun 03:40:58 PM 40.8831 -90.4308 66° East 500 575 28,100 -823 Descending Chicago Center
Sun 03:41:59 PM 40.9403 -90.2622 66° East 499 574 27,300 -780 Descending Chicago Center
Sun 03:43:01 PM 40.9975 -90.0883 66° East 494 568 26,500 -774 Descending Chicago Center
Sun 03:44:03 PM 41.0486 -89.9311 67° East 481 554 25,700 -1,016 Descending Chicago Center
Sun 03:45:05 PM 41.1022 -89.7692 66° East 478 550 24,400 -1,645 Descending Chicago Center
Sun 03:46:07 PM 41.1525 -89.6114 67° East 468 539 22,300 -2,419 Descending Chicago Center
Sun 03:47:09 PM 41.2203 -89.4406 62° Northeast 439 505 19,400 -2,371 Descending Chicago Center
Sun 03:48:11 PM 41.2778 -89.3022 61° Northeast 428 493 17,400 -2,081 Descending Chicago Center
Sun 03:49:13 PM 41.3258 -89.1719 64° Northeast 408 470 15,100 -2,129 Descending Chicago Center
Sun 03:50:15 PM 41.3789 -89.0431 61° Northeast 398 458 13,000 -1,728 Descending Chicago Center
Sun 03:51:18 PM 41.4267 -88.9208 62° Northeast 376 433 11,500 -960 Descending Chicago Center
Sun 03:52:20 PM 41.4831 -88.7806 62° Northeast 361 415 11,000 -242 Descending Chicago Center
Sun 03:53:22 PM 41.5283 -88.6656 62° Northeast 355 409 11,000  Level Chicago Center
Sun 03:54:24 PM 41.5736 -88.5494 62° Northeast 352 405 11,000  Level Chicago Center
Sun 03:55:26 PM 41.6253 -88.4375 58° Northeast 355 409 11,000  Level Chicago Center
Sun 03:56:28 PM 41.6861 -88.3356 51° Northeast 350 403 11,000  Level Chicago Center
Sun 03:57:30 PM 41.7456 -88.2317 52° Northeast 351 404 11,000 -528 Level Chicago Center
Sun 03:58:33 PM 41.8089 -88.1233 52° Northeast 309 356 9,900 -1,306 Descending Chicago Center
Sun 03:59:34 PM 41.8575 -88.0353 53° Northeast 296 341 8,300 -1,415 Descending Chicago Center
Sun 04:00:36 PM 41.8844 -87.9406 69° East 286 329 7,000 -629 Descending Chicago Center
Sun 04:01:38 PM 41.8847 -87.8436 90° East 263 303 7,000 -581 Level Chicago Center
Sun 04:02:40 PM 41.8836 -87.7656 91° East 217 250 5,800 -1,296 Descending Chicago Center
Sun 04:03:43 PM 41.8850 -87.6883 89° East 209 241 4,300 -864 Descending Chicago Center
Sun 04:04:45 PM 41.9319 -87.6503 31° Northeast 205 236 4,000 -290 Descending Chicago Center

Login

Don't have an account? Register now (free) for customized features, flight alerts, and more!